createdAt,value
2018-03-30T00:02:07.043Z,0.60
2018-03-30T00:04:34.543Z,0.50
2018-03-30T00:07:07.738Z,0.50
2018-03-30T00:09:47.182Z,0.40
2018-03-30T00:12:14.635Z,0.40
2018-03-30T00:14:42.234Z,0.30
2018-03-30T00:17:09.719Z,0.20
2018-03-30T00:19:37.220Z,0.10
2018-03-30T00:22:04.685Z,0.00
2018-03-30T00:24:32.163Z,-0.10
2018-03-30T00:27:00.396Z,-0.30
2018-03-30T00:29:27.884Z,-0.30
2018-03-30T00:31:55.344Z,-0.40
2018-03-30T00:34:23.595Z,-0.50
2018-03-30T00:36:51.072Z,-0.50
2018-03-30T00:39:18.543Z,-0.50
2018-03-30T00:41:46.802Z,-0.60
2018-03-30T00:44:14.300Z,-0.60
2018-03-30T00:46:42.643Z,-0.60
2018-03-30T00:49:10.222Z,-0.60
2018-03-30T00:51:38.499Z,-0.60
2018-03-30T00:54:06.741Z,-0.70
2018-03-30T00:56:34.254Z,-0.70
2018-03-30T00:59:01.796Z,-0.70
2018-03-30T01:01:30.042Z,-0.80
2018-03-30T01:03:57.542Z,-0.90
2018-03-30T01:06:25.015Z,-0.90
2018-03-30T01:08:52.513Z,-0.90
2018-03-30T01:11:19.978Z,-0.90
2018-03-30T01:13:47.468Z,-0.80
2018-03-30T01:16:15.713Z,-0.80
2018-03-30T01:18:43.190Z,-0.80
2018-03-30T01:21:11.410Z,-0.40
2018-03-30T01:23:38.895Z,-0.40
2018-03-30T01:26:06.405Z,-0.10
2018-03-30T01:28:33.869Z,0.20
2018-03-30T01:31:01.380Z,0.50
2018-03-30T01:33:28.862Z,0.70
2018-03-30T01:35:57.110Z,0.90
2018-03-30T01:38:24.674Z,0.80
2018-03-30T01:40:52.150Z,0.90
2018-03-30T01:43:20.393Z,0.90
2018-03-30T01:45:47.859Z,0.90
2018-03-30T01:48:15.338Z,0.80
2018-03-30T01:50:43.565Z,0.80
2018-03-30T01:53:11.048Z,0.80
2018-03-30T01:55:38.515Z,0.90
2018-03-30T01:58:05.993Z,0.90
2018-03-30T02:00:34.213Z,1.10
2018-03-30T02:03:01.758Z,1.10
2018-03-30T02:05:29.960Z,1.20
2018-03-30T02:07:57.410Z,1.20
2018-03-30T02:10:24.903Z,1.30
2018-03-30T02:12:52.354Z,1.30
2018-03-30T02:15:20.601Z,1.40
2018-03-30T02:17:48.094Z,1.40
2018-03-30T02:20:15.573Z,1.40
2018-03-30T02:22:43.810Z,1.50
2018-03-30T02:25:11.318Z,1.50
2018-03-30T02:27:38.783Z,1.50
2018-03-30T02:30:06.278Z,1.50
2018-03-30T02:32:33.751Z,1.40
2018-03-30T02:35:01.231Z,1.40
2018-03-30T02:37:29.482Z,1.40
2018-03-30T02:39:56.941Z,1.40
2018-03-30T02:42:24.434Z,1.40
2018-03-30T02:44:51.949Z,1.40
2018-03-30T02:47:19.455Z,1.50
2018-03-30T02:49:46.904Z,1.50
2018-03-30T02:52:15.151Z,1.50
2018-03-30T02:54:42.603Z,1.50
2018-03-30T02:57:10.082Z,1.50
2018-03-30T02:59:38.316Z,1.60
2018-03-30T03:02:05.774Z,1.60
2018-03-30T03:04:33.250Z,1.60
2018-03-30T03:07:00.720Z,1.70
2018-03-30T03:09:28.197Z,1.70
2018-03-30T03:11:55.654Z,1.70
2018-03-30T03:14:23.898Z,1.70
2018-03-30T03:16:51.361Z,1.70
2018-03-30T03:19:18.841Z,1.70
2018-03-30T03:21:47.082Z,1.70
2018-03-30T03:24:14.539Z,1.70
2018-03-30T03:26:42.028Z,1.70
2018-03-30T03:29:10.261Z,1.70
2018-03-30T03:31:37.770Z,1.70
2018-03-30T03:34:06.010Z,1.80
2018-03-30T03:36:33.505Z,1.80
2018-03-30T03:39:01.737Z,1.80
2018-03-30T03:41:29.209Z,1.80
2018-03-30T03:43:56.694Z,1.70
2018-03-30T03:46:24.930Z,1.60
2018-03-30T03:48:52.410Z,1.60
2018-03-30T03:51:19.872Z,1.50
2018-03-30T03:53:48.109Z,1.50
2018-03-30T03:56:15.574Z,1.50
2018-03-30T03:58:43.047Z,1.60
2018-03-30T04:01:10.508Z,1.50
2018-03-30T04:03:38.057Z,1.60
2018-03-30T04:06:05.531Z,1.60
2018-03-30T04:08:33.008Z,1.60
2018-03-30T04:11:00.486Z,1.50
2018-03-30T04:13:27.939Z,1.50
2018-03-30T04:15:55.409Z,1.50
2018-03-30T04:18:22.869Z,1.40
2018-03-30T04:20:50.347Z,1.30
2018-03-30T04:23:17.806Z,1.30
2018-03-30T04:25:45.292Z,1.20
2018-03-30T04:28:12.748Z,1.20
2018-03-30T04:30:40.227Z,1.20
2018-03-30T04:33:08.470Z,1.30
2018-03-30T04:35:35.940Z,1.30
2018-03-30T04:38:03.437Z,1.30
2018-03-30T04:40:30.887Z,1.30
2018-03-30T04:42:58.381Z,1.30
2018-03-30T04:45:25.849Z,1.30
2018-03-30T04:47:53.334Z,1.30
2018-03-30T04:50:20.882Z,1.30
2018-03-30T04:52:48.341Z,1.30
2018-03-30T04:55:15.925Z,1.30
2018-03-30T04:57:43.351Z,1.30
2018-03-30T05:00:10.849Z,1.30
2018-03-30T05:02:38.325Z,1.40
2018-03-30T05:05:06.090Z,1.40
2018-03-30T05:07:33.566Z,1.40
2018-03-30T05:10:01.051Z,1.40
2018-03-30T05:12:28.530Z,1.50
2018-03-30T05:14:56.766Z,1.50
2018-03-30T05:17:24.259Z,1.50
2018-03-30T05:19:51.710Z,1.50
2018-03-30T05:22:19.960Z,1.50
2018-03-30T05:24:47.422Z,1.50
2018-03-30T05:27:14.902Z,1.50
2018-03-30T05:29:43.130Z,1.60
2018-03-30T05:32:10.635Z,1.60
2018-03-30T05:34:38.898Z,1.60
2018-03-30T05:37:06.379Z,1.60
2018-03-30T05:39:34.628Z,1.50
2018-03-30T05:42:02.083Z,1.50
2018-03-30T05:44:29.566Z,1.50
2018-03-30T05:46:57.798Z,1.60
2018-03-30T05:49:25.297Z,1.60
2018-03-30T05:51:52.742Z,1.70
2018-03-30T05:54:20.213Z,1.70
2018-03-30T05:56:48.476Z,1.70
2018-03-30T05:59:15.958Z,1.70
2018-03-30T06:01:44.220Z,1.70
2018-03-30T06:04:11.683Z,1.70
2018-03-30T06:06:39.942Z,1.60
2018-03-30T06:09:07.405Z,1.60
2018-03-30T06:11:34.898Z,1.60
2018-03-30T06:14:02.354Z,1.50
2018-03-30T06:16:29.868Z,1.50
2018-03-30T06:18:57.335Z,1.40
2018-03-30T06:21:24.793Z,1.40
2018-03-30T06:23:52.290Z,1.30
2018-03-30T06:26:19.768Z,1.30
2018-03-30T06:28:47.243Z,1.30
2018-03-30T06:31:14.723Z,1.30
2018-03-30T06:33:42.231Z,1.40
2018-03-30T06:36:09.717Z,1.40
2018-03-30T06:38:37.218Z,1.40
2018-03-30T06:41:05.450Z,1.60
2018-03-30T06:43:32.915Z,1.50
2018-03-30T06:46:00.403Z,1.70
2018-03-30T06:48:28.629Z,1.80
2018-03-30T06:50:56.113Z,1.80
2018-03-30T06:53:23.571Z,1.90
2018-03-30T06:55:51.046Z,2.00
2018-03-30T06:58:19.274Z,2.30
2018-03-30T07:00:46.762Z,2.20
2018-03-30T07:03:14.215Z,2.40
2018-03-30T07:05:41.697Z,2.60
2018-03-30T07:08:09.155Z,2.70
2018-03-30T07:10:37.435Z,3.00
2018-03-30T07:13:05.664Z,3.10
2018-03-30T07:15:33.163Z,3.10
2018-03-30T07:18:01.430Z,3.40
2018-03-30T07:20:29.002Z,3.40
2018-03-30T07:22:57.259Z,3.70
2018-03-30T07:25:26.235Z,3.90
2018-03-30T07:27:53.727Z,3.90
2018-03-30T07:30:21.969Z,4.30
2018-03-30T07:32:49.469Z,4.30
2018-03-30T07:35:17.699Z,4.80
2018-03-30T07:37:45.191Z,4.80
2018-03-30T07:40:12.684Z,4.90
2018-03-30T07:42:40.139Z,5.00
2018-03-30T07:45:07.632Z,5.20
2018-03-30T07:47:35.089Z,5.30
2018-03-30T07:50:02.618Z,5.30
2018-03-30T07:52:30.122Z,5.40
2018-03-30T07:54:57.629Z,5.50
2018-03-30T07:57:25.108Z,5.70
2018-03-30T07:59:52.620Z,5.80
2018-03-30T08:02:20.839Z,6.00
2018-03-30T08:04:48.314Z,5.90
2018-03-30T08:07:15.829Z,6.00
2018-03-30T08:09:43.318Z,6.20
2018-03-30T08:12:10.787Z,6.30
2018-03-30T08:14:38.267Z,6.80
2018-03-30T08:17:06.526Z,7.70
2018-03-30T08:19:34.028Z,7.70
2018-03-30T08:22:01.500Z,8.00
2018-03-30T08:24:28.968Z,8.30
2018-03-30T08:26:56.455Z,8.20
2018-03-30T08:29:23.951Z,8.00
2018-03-30T08:31:52.211Z,7.70
2018-03-30T08:34:19.705Z,7.70
2018-03-30T08:36:47.218Z,7.60
2018-03-30T08:39:14.722Z,7.40
2018-03-30T08:41:42.216Z,7.30
2018-03-30T08:44:09.708Z,7.30
2018-03-30T08:46:37.175Z,7.40
2018-03-30T08:49:05.444Z,7.40
2018-03-30T08:51:33.704Z,7.30
2018-03-30T08:54:01.226Z,7.30
2018-03-30T08:56:28.704Z,7.20
2018-03-30T08:58:56.207Z,7.10
2018-03-30T09:01:24.467Z,7.10
2018-03-30T09:03:51.934Z,7.10
2018-03-30T09:06:20.205Z,7.20
2018-03-30T09:08:48.442Z,7.10
2018-03-30T09:11:15.960Z,7.10
2018-03-30T09:13:43.425Z,7.10
2018-03-30T09:16:10.914Z,7.00
2018-03-30T09:18:38.415Z,7.00
2018-03-30T09:21:06.678Z,7.10
2018-03-30T09:23:34.940Z,7.20
2018-03-30T09:26:03.199Z,7.30
2018-03-30T09:28:30.706Z,7.30
2018-03-30T09:30:58.940Z,7.40
2018-03-30T09:33:28.207Z,7.40
2018-03-30T09:35:55.667Z,7.50
2018-03-30T09:38:23.182Z,7.50
2018-03-30T09:40:50.750Z,7.60
2018-03-30T09:43:19.036Z,7.70
2018-03-30T09:45:47.306Z,7.90
2018-03-30T09:48:15.569Z,8.00
2018-03-30T09:50:44.550Z,8.20
2018-03-30T09:53:12.022Z,8.20
2018-03-30T09:55:39.498Z,8.40
2018-03-30T09:58:07.732Z,9.00
2018-03-30T10:00:35.234Z,9.00
2018-03-30T10:03:04.453Z,9.80
2018-03-30T10:05:31.956Z,9.80
2018-03-30T10:07:59.417Z,10.10
2018-03-30T10:10:26.922Z,10.20
2018-03-30T10:12:54.410Z,10.40
2018-03-30T10:15:21.936Z,10.60
2018-03-30T10:17:49.396Z,10.80
2018-03-30T10:20:16.887Z,11.00
2018-03-30T10:22:44.364Z,11.20
2018-03-30T10:25:11.850Z,11.40
2018-03-30T10:27:39.365Z,11.60
2018-03-30T10:30:07.955Z,12.00
2018-03-30T10:32:35.437Z,11.90
2018-03-30T10:35:02.937Z,12.10
2018-03-30T10:37:30.458Z,12.30
2018-03-30T10:39:57.914Z,12.50
2018-03-30T10:42:26.166Z,12.90
2018-03-30T10:44:53.648Z,12.80
2018-03-30T10:47:21.901Z,12.80
2018-03-30T10:52:23.673Z,12.80
2018-03-30T10:54:51.138Z,12.90
2018-03-30T10:57:18.674Z,13.00
2018-03-30T10:59:46.890Z,13.60
2018-03-30T11:02:15.523Z,13.80
2018-03-30T11:04:43.008Z,13.80
2018-03-30T11:07:10.493Z,14.00
2018-03-30T11:09:38.730Z,14.60
2018-03-30T11:12:06.231Z,14.60
2018-03-30T11:14:33.709Z,14.80
2018-03-30T11:17:01.944Z,15.10
2018-03-30T11:19:29.459Z,15.10
2018-03-30T11:21:56.938Z,15.30
2018-03-30T11:24:24.436Z,15.40
2018-03-30T11:26:52.678Z,15.50
2018-03-30T11:29:21.331Z,15.50
2018-03-30T11:31:48.815Z,15.50
2018-03-30T11:34:16.314Z,15.40
2018-03-30T11:36:43.797Z,15.30
2018-03-30T11:39:11.302Z,15.30
2018-03-30T11:41:38.771Z,15.50
2018-03-30T11:44:06.314Z,15.70
2018-03-30T11:46:33.814Z,16.10
2018-03-30T11:49:02.435Z,16.80
2018-03-30T11:51:29.913Z,16.80
2018-03-30T11:53:57.372Z,17.00
2018-03-30T11:56:24.877Z,17.30
2018-03-30T11:58:53.097Z,17.60
2018-03-30T12:01:20.570Z,17.60
2018-03-30T12:03:48.058Z,17.50
2018-03-30T12:06:16.313Z,17.60
2018-03-30T12:08:43.790Z,17.60
2018-03-30T12:11:11.284Z,17.80
2018-03-30T12:13:38.763Z,18.00
2018-03-30T12:16:06.242Z,17.80
2018-03-30T12:18:33.715Z,17.70
2018-03-30T12:21:02.324Z,17.90
2018-03-30T12:23:30.570Z,18.10
2018-03-30T12:25:58.058Z,18.00
2018-03-30T12:28:26.320Z,18.20
2018-03-30T12:30:54.566Z,18.30
2018-03-30T12:33:22.059Z,18.20
2018-03-30T12:35:50.286Z,18.40
2018-03-30T12:38:17.809Z,18.30
2018-03-30T12:40:45.286Z,18.90
2018-03-30T12:43:12.775Z,19.50
2018-03-30T12:45:40.262Z,19.90
2018-03-30T12:48:08.502Z,20.50
2018-03-30T12:50:36.001Z,20.40
2018-03-30T12:53:04.639Z,21.30
2018-03-30T12:55:32.128Z,21.30
2018-03-30T12:58:00.386Z,21.90
2018-03-30T13:00:28.630Z,21.90
2018-03-30T13:02:56.146Z,21.90
2018-03-30T13:07:53.250Z,22.70
2018-03-30T13:10:20.712Z,22.70
2018-03-30T13:12:48.213Z,22.70
2018-03-30T13:15:15.664Z,22.90
2018-03-30T13:17:43.181Z,23.40
2018-03-30T13:20:11.783Z,25.00
2018-03-30T13:22:39.271Z,24.90
2018-03-30T13:25:06.742Z,27.00
2018-03-30T13:27:35.374Z,32.10
2018-03-30T13:30:02.880Z,31.90
2018-03-30T13:32:30.363Z,33.90
2018-03-30T13:34:58.998Z,36.20
2018-03-30T13:37:26.473Z,36.20
2018-03-30T13:39:53.984Z,36.50
2018-03-30T13:42:21.471Z,35.90
2018-03-30T13:44:48.967Z,34.70
2018-03-30T13:47:17.216Z,32.30
2018-03-30T13:49:44.726Z,32.30
2018-03-30T13:55:07.596Z,28.90
2018-03-30T13:57:46.778Z,27.90
2018-03-30T14:00:23.068Z,27.30
2018-03-30T14:05:48.038Z,28.60
2018-03-30T14:11:15.837Z,34.10
2018-03-30T14:13:43.340Z,36.30
2018-03-30T14:16:23.336Z,38.30
2018-03-30T14:19:13.481Z,38.20
2018-03-30T14:22:02.435Z,39.20
2018-03-30T14:24:30.676Z,39.40
2018-03-30T14:27:16.626Z,39.40
2018-03-30T14:29:48.096Z,40.00
2018-03-30T14:32:34.187Z,39.90
2018-03-30T14:35:04.439Z,40.60
2018-03-30T14:37:36.450Z,40.90
2018-03-30T14:40:10.694Z,40.80
2018-03-30T14:42:40.036Z,40.50
2018-03-30T14:48:19.344Z,40.20
2018-03-30T14:50:54.729Z,38.50
2018-03-30T14:53:26.690Z,36.80
2018-03-30T14:56:07.790Z,35.20
2018-03-30T14:58:37.878Z,32.70
2018-03-30T15:04:07.707Z,32.50
2018-03-30T15:06:36.782Z,31.90
2018-03-30T15:09:10.878Z,30.70
2018-03-30T15:11:42.127Z,28.90
2018-03-30T15:14:14.014Z,27.40
2018-03-30T15:19:57.827Z,24.30
2018-03-30T15:22:27.931Z,21.10
2018-03-30T15:28:01.857Z,19.70
2018-03-30T15:30:31.943Z,18.50
2018-03-30T15:33:20.768Z,18.40
2018-03-30T15:35:50.860Z,18.10
2018-03-30T15:38:19.127Z,18.70
2018-03-30T15:40:46.608Z,18.70
2018-03-30T15:43:16.579Z,22.00
2018-03-30T15:45:49.084Z,21.90
2018-03-30T15:48:17.327Z,24.90
2018-03-30T15:50:44.810Z,24.80
2018-03-30T15:53:17.450Z,23.80
2018-03-30T15:55:46.670Z,23.80
2018-03-30T15:58:14.170Z,23.80
2018-03-30T16:00:41.666Z,24.60
2018-03-30T16:03:09.167Z,25.40
2018-03-30T16:05:36.669Z,25.80
2018-03-30T16:08:04.127Z,25.70
2018-03-30T16:10:38.119Z,25.00
2018-03-30T16:13:05.636Z,24.20
2018-03-30T16:15:33.194Z,23.10
2018-03-30T16:18:00.704Z,22.00
2018-03-30T16:20:27.698Z,20.90
2018-03-30T16:22:54.697Z,19.90
2018-03-30T16:25:21.701Z,19.00
2018-03-30T16:27:48.710Z,18.20
2018-03-30T16:30:15.701Z,17.70
2018-03-30T16:32:42.678Z,17.20
2018-03-30T16:35:09.681Z,16.70
2018-03-30T16:37:36.669Z,16.30
2018-03-30T16:40:03.676Z,15.80
2018-03-30T16:42:30.743Z,15.40
2018-03-30T16:44:58.523Z,14.80
2018-03-30T16:47:25.548Z,14.70
2018-03-30T16:49:52.546Z,14.50
2018-03-30T16:52:19.535Z,14.30
2018-03-30T16:54:46.514Z,14.20
2018-03-30T16:57:13.593Z,14.20
2018-03-30T16:59:40.575Z,14.20
2018-03-30T17:02:07.595Z,14.20
2018-03-30T17:04:34.594Z,14.00
2018-03-30T17:07:01.637Z,13.80
2018-03-30T17:09:29.388Z,13.20
2018-03-30T17:11:57.217Z,13.00
2018-03-30T17:14:24.240Z,13.00
2018-03-30T17:16:51.237Z,12.80
2018-03-30T17:19:18.246Z,12.60
2018-03-30T17:21:45.303Z,12.40
2018-03-30T17:24:12.329Z,12.30
2018-03-30T17:26:39.368Z,12.10
2018-03-30T17:29:06.398Z,12.00
2018-03-30T17:31:33.395Z,11.90
2018-03-30T17:34:00.429Z,11.70
2018-03-30T17:36:27.436Z,11.60
2018-03-30T17:38:55.217Z,11.40
2018-03-30T17:41:22.187Z,11.40
2018-03-30T17:43:49.218Z,11.40
2018-03-30T17:46:16.222Z,11.30
2018-03-30T17:48:43.243Z,11.30
2018-03-30T17:51:10.236Z,11.20
2018-03-30T17:53:38.010Z,11.20
2018-03-30T17:56:05.016Z,11.20
2018-03-30T17:58:32.045Z,11.20
2018-03-30T18:00:59.020Z,11.20
2018-03-30T18:03:26.006Z,11.10
2018-03-30T18:05:53.036Z,11.10
2018-03-30T18:08:20.783Z,11.10
2018-03-30T18:10:47.832Z,11.10
2018-03-30T18:13:15.583Z,11.00
2018-03-30T18:15:42.587Z,11.00
2018-03-30T18:18:09.596Z,11.00
2018-03-30T18:20:37.394Z,10.80
2018-03-30T18:23:04.375Z,10.80
2018-03-30T18:25:31.414Z,10.80
2018-03-30T18:27:58.385Z,10.80
2018-03-30T18:30:25.474Z,10.80
2018-03-30T18:32:52.455Z,10.80
2018-03-30T18:35:19.475Z,10.80
2018-03-30T18:37:46.499Z,10.80
2018-03-30T18:40:14.267Z,10.80
2018-03-30T18:42:42.031Z,10.80
2018-03-30T18:45:09.018Z,10.70
2018-03-30T18:47:36.037Z,10.70
2018-03-30T18:50:03.054Z,10.70
2018-03-30T18:52:30.846Z,10.70
2018-03-30T18:54:57.821Z,10.70
2018-03-30T18:57:24.844Z,10.50
2018-03-30T18:59:51.824Z,10.40
2018-03-30T19:02:18.810Z,10.30
2018-03-30T19:04:46.595Z,10.10
2018-03-30T19:07:13.612Z,10.00
2018-03-30T19:09:41.392Z,10.10
2018-03-30T19:12:09.154Z,10.00
2018-03-30T19:14:36.919Z,9.90
2018-03-30T19:17:04.693Z,9.70
2018-03-30T19:19:32.535Z,9.50
2018-03-30T19:22:00.402Z,9.50
2018-03-30T19:24:27.905Z,9.20
2018-03-30T19:26:54.952Z,8.80
2018-03-30T19:29:21.969Z,8.50
2018-03-30T19:31:49.719Z,8.00
2018-03-30T19:34:17.817Z,7.90
2018-03-30T19:36:44.803Z,7.80
2018-03-30T19:39:11.825Z,7.70
2018-03-30T19:41:38.807Z,7.60
2018-03-30T19:44:05.819Z,7.50
2018-03-30T19:46:32.814Z,7.40
2018-03-30T19:48:59.806Z,7.40
2018-03-30T19:51:26.813Z,7.30
2018-03-30T19:53:53.825Z,7.30
2018-03-30T19:56:20.830Z,7.20
2018-03-30T19:58:48.582Z,7.20
2018-03-30T20:01:16.399Z,7.20
2018-03-30T20:03:43.404Z,7.20
2018-03-30T20:06:11.189Z,7.10
2018-03-30T20:08:38.209Z,7.10
2018-03-30T20:11:06.051Z,7.10
2018-03-30T20:13:33.055Z,7.10
2018-03-30T20:16:00.069Z,7.10
2018-03-30T20:18:27.828Z,7.00
2018-03-30T20:20:54.836Z,7.00
2018-03-30T20:23:22.607Z,6.80
2018-03-30T20:25:50.418Z,6.70
2018-03-30T20:28:18.213Z,6.70
2018-03-30T20:30:45.232Z,6.70
2018-03-30T20:33:13.003Z,6.60
2018-03-30T20:35:40.789Z,6.60
2018-03-30T20:38:07.842Z,6.60
2018-03-30T20:40:34.859Z,6.60
2018-03-30T20:43:02.638Z,6.50
2018-03-30T20:45:29.651Z,6.40
2018-03-30T20:47:56.657Z,6.40
2018-03-30T20:50:23.659Z,6.40
2018-03-30T20:52:51.676Z,6.30
2018-03-30T20:55:18.694Z,6.30
2018-03-30T20:57:45.688Z,6.30
2018-03-30T21:00:12.718Z,6.30
2018-03-30T21:02:39.816Z,6.30
2018-03-30T21:05:07.587Z,6.20
2018-03-30T21:07:35.344Z,6.20
2018-03-30T21:10:03.158Z,6.10
2018-03-30T21:12:30.139Z,6.10
2018-03-30T21:14:57.186Z,6.00
2018-03-30T21:17:24.234Z,5.90
2018-03-30T21:19:51.290Z,5.80
2018-03-30T21:22:18.300Z,5.80
2018-03-30T21:24:45.326Z,5.80
2018-03-30T21:27:12.350Z,5.70
2018-03-30T21:29:40.089Z,5.70
2018-03-30T21:32:07.067Z,5.70
2018-03-30T21:34:34.045Z,5.70
2018-03-30T21:37:01.055Z,5.70
2018-03-30T21:39:28.041Z,5.70
2018-03-30T21:41:55.080Z,5.60
2018-03-30T21:44:22.082Z,5.60
2018-03-30T21:46:49.841Z,5.60
2018-03-30T21:49:16.850Z,5.50
2018-03-30T21:51:43.825Z,5.60
2018-03-30T21:54:10.821Z,5.50
2018-03-30T21:56:37.791Z,5.60
2018-03-30T21:59:04.812Z,5.60
2018-03-30T22:01:31.789Z,5.50
2018-03-30T22:03:58.786Z,5.50
2018-03-30T22:06:25.779Z,5.50
2018-03-30T22:08:52.911Z,5.50
2018-03-30T22:11:19.974Z,5.50
2018-03-30T22:13:46.969Z,5.50
2018-03-30T22:16:14.724Z,5.40
2018-03-30T22:18:42.472Z,5.30
2018-03-30T22:21:09.464Z,5.30
2018-03-30T22:23:36.442Z,5.30
2018-03-30T22:26:03.399Z,5.20
2018-03-30T22:28:30.392Z,5.20
2018-03-30T22:30:57.400Z,5.20
2018-03-30T22:33:24.389Z,5.10
2018-03-30T22:35:51.587Z,5.10
2018-03-30T22:38:18.642Z,5.10
2018-03-30T22:40:45.637Z,5.00
2018-03-30T22:43:12.615Z,5.00
2018-03-30T22:45:39.615Z,4.90
2018-03-30T22:48:07.377Z,4.90
2018-03-30T22:50:35.145Z,4.80
2018-03-30T22:53:02.906Z,4.80
2018-03-30T22:55:30.664Z,4.80
2018-03-30T22:57:58.422Z,4.80
2018-03-30T23:00:25.403Z,4.80
2018-03-30T23:02:52.400Z,4.80
2018-03-30T23:05:19.416Z,4.80
2018-03-30T23:07:46.385Z,4.80
2018-03-30T23:10:13.382Z,4.70
2018-03-30T23:12:40.349Z,4.70
2018-03-30T23:15:07.389Z,4.70
2018-03-30T23:17:34.360Z,4.70
2018-03-30T23:20:01.318Z,4.60
2018-03-30T23:22:28.312Z,4.60
2018-03-30T23:24:55.282Z,4.60
2018-03-30T23:27:22.287Z,4.50
2018-03-30T23:29:50.022Z,4.50
2018-03-30T23:32:17.008Z,4.50
2018-03-30T23:34:44.733Z,4.50
2018-03-30T23:37:11.749Z,4.50
2018-03-30T23:39:38.717Z,4.50
2018-03-30T23:42:05.705Z,4.60
2018-03-30T23:44:33.432Z,4.50
2018-03-30T23:47:00.476Z,4.50
2018-03-30T23:49:27.445Z,4.60
2018-03-30T23:51:55.185Z,4.50
2018-03-30T23:54:22.199Z,4.50
2018-03-30T23:56:49.206Z,4.60
2018-03-30T23:59:16.204Z,4.60
